Time;durP1;ratioP1;P1;durP2;ratioP2;P2;SDS_P1;SDS_P2;PMS_P1;PMS_P2;Temp;Humidity;BMP_temperature;BMP_pressure;BME280_temperature;BME280_humidity;BME280_pressure;Samples;Min_cycle;Max_cycle;Signal;HPM_P1;HPM_P2
2021/05/22 00:00:27;;;;;;;11.50;2.83;;;;;;;19.23;37.00;99477.28;4133639;28;20042;-49
2021/05/22 00:02:27;;;;;;;11.30;2.95;;;;;;;19.15;37.22;99478.03;4136232;28;20524;-53
2021/05/22 00:04:28;;;;;;;12.93;2.63;;;;;;;19.18;37.07;99477.41;4130216;28;20469;-53
2021/05/22 00:06:28;;;;;;;10.52;3.00;;;;;;;19.15;37.32;99483.56;4136931;28;20077;-51
2021/05/22 00:08:28;;;;;;;10.60;2.63;;;;;;;19.14;37.26;99470.84;4136488;28;20037;-53
2021/05/22 00:10:29;;;;;;;11.95;3.30;;;;;;;19.15;36.87;99466.94;4138040;28;20681;-50
2021/05/22 00:12:30;;;;;;;9.18;2.65;;;;;;;19.10;36.89;99471.81;4133775;28;20030;-47
2021/05/22 00:14:31;;;;;;;8.77;2.45;;;;;;;19.04;36.92;99473.84;4133515;28;20037;-51
2021/05/22 00:16:32;;;;;;;10.50;2.17;;;;;;;18.99;37.12;99476.75;4136539;28;20137;-52
2021/05/22 00:18:33;;;;;;;9.65;2.65;;;;;;;18.97;37.17;99460.41;4130661;28;20078;-48
2021/05/22 00:20:34;;;;;;;7.68;2.28;;;;;;;18.98;37.22;99466.78;4136026;28;20445;-51
2021/05/22 00:22:34;;;;;;;8.13;2.78;;;;;;;19.04;37.13;99452.47;4135375;28;20034;-48
2021/05/22 00:24:35;;;;;;;7.30;2.30;;;;;;;19.07;36.81;99464.88;4133723;28;20130;-48
2021/05/22 00:26:35;;;;;;;11.48;2.08;;;;;;;18.98;36.81;99459.25;4131680;28;20485;-49
2021/05/22 00:28:36;;;;;;;7.70;2.25;;;;;;;19.12;36.56;99453.69;4132644;28;20583;-47
2021/05/22 00:30:36;;;;;;;10.02;2.47;;;;;;;19.06;36.41;99449.38;4138959;28;20034;-51
2021/05/22 00:32:37;;;;;;;7.93;2.10;;;;;;;19.00;36.74;99461.72;4132121;28;20717;-50
2021/05/22 00:34:38;;;;;;;7.68;2.50;;;;;;;18.95;36.67;99454.34;4137811;28;20045;-49
2021/05/22 00:36:38;;;;;;;10.48;2.85;;;;;;;19.01;36.36;99444.78;4139763;28;20587;-49
2021/05/22 00:38:39;;;;;;;5.82;2.15;;;;;;;18.94;36.58;99458.28;4138019;28;20088;-49
2021/05/22 00:40:40;;;;;;;6.35;2.58;;;;;;;18.93;36.71;99461.34;4142418;28;20030;-49
2021/05/22 00:42:40;;;;;;;10.60;2.25;;;;;;;18.96;36.71;99457.97;4154628;28;20044;-52
2021/05/22 00:45:05;;;;;;;7.28;2.20;;;;;;;18.91;36.54;99444.19;4140141;28;20041;-50
2021/05/22 00:47:05;;;;;;;12.35;2.35;;;;;;;18.78;36.80;99446.69;4142311;28;20118;-46
2021/05/22 00:49:06;;;;;;;9.25;2.60;;;;;;;18.86;36.58;99443.19;4148688;28;20485;-47
2021/05/22 00:51:06;;;;;;;6.95;2.35;;;;;;;18.78;36.78;99437.56;4138920;28;20495;-47
2021/05/22 00:53:08;;;;;;;6.93;2.42;;;;;;;18.77;36.60;99436.75;4138003;28;20118;-47
2021/05/22 00:55:09;;;;;;;8.18;2.25;;;;;;;18.81;36.49;99440.53;4139083;28;20403;-48
2021/05/22 00:57:10;;;;;;;6.00;2.00;;;;;;;18.81;36.54;99432.22;4143369;28;20034;-51
2021/05/22 00:59:14;;;;;;;5.82;1.77;;;;;;;18.76;36.54;99423.22;4145002;28;20088;-46
2021/05/22 01:01:15;;;;;;;7.55;2.22;;;;;;;18.78;36.66;99427.28;4136340;28;20073;-46
2021/05/22 01:03:34;;;;;;;5.75;1.65;;;;;;;18.74;36.62;99428.22;4141767;28;20401;-46
2021/05/22 01:05:34;;;;;;;8.85;2.35;;;;;;;18.71;36.69;99416.66;4134483;28;20034;-46
2021/05/22 01:07:35;;;;;;;9.52;1.98;;;;;;;18.72;36.75;99423.00;4139894;28;20093;-46
2021/05/22 01:09:36;;;;;;;6.20;2.63;;;;;;;18.67;36.58;99421.16;4143314;28;20293;-48
2021/05/22 01:11:41;;;;;;;7.28;2.50;;;;;;;18.68;36.25;99422.00;4140369;28;20037;-47
2021/05/22 01:13:43;;;;;;;7.35;2.22;;;;;;;18.58;36.53;99402.84;4142490;28;20111;-49
2021/05/22 01:15:46;;;;;;;4.45;1.95;;;;;;;18.73;36.34;99415.53;4145634;28;20120;-50
2021/05/22 01:17:48;;;;;;;6.60;2.22;;;;;;;18.72;36.33;99400.84;4141179;28;20030;-46
2021/05/22 01:20:06;;;;;;;4.50;1.73;;;;;;;18.64;36.33;99419.03;4142017;28;20055;-50
2021/05/22 01:22:08;;;;;;;5.38;2.13;;;;;;;18.71;36.31;99415.84;4139036;28;20144;-48
2021/05/22 01:24:13;;;;;;;5.90;2.63;;;;;;;18.67;36.36;99412.84;4143248;28;20040;-49
2021/05/22 01:26:14;;;;;;;4.75;2.10;;;;;;;18.65;36.44;99422.63;4138808;28;20038;-48
2021/05/22 01:28:15;;;;;;;6.82;1.95;;;;;;;18.62;36.45;99406.63;4140055;28;20072;-50
2021/05/22 01:30:17;;;;;;;7.85;2.33;;;;;;;18.55;36.45;99400.69;4138233;28;20036;-51
2021/05/22 01:32:18;;;;;;;5.05;1.95;;;;;;;18.51;36.44;99409.63;4137105;28;20064;-51
2021/05/22 01:34:18;;;;;;;6.18;2.30;;;;;;;18.56;36.35;99417.00;4140595;28;20037;-50
2021/05/22 01:36:19;;;;;;;5.13;1.98;;;;;;;18.57;36.49;99409.50;4131531;28;20029;-49
2021/05/22 01:38:19;;;;;;;4.97;1.85;;;;;;;18.45;36.55;99397.03;4139978;28;20122;-52
2021/05/22 01:40:20;;;;;;;6.55;2.25;;;;;;;18.45;36.75;99408.09;4141168;28;20037;-49
2021/05/22 01:42:20;;;;;;;5.45;2.20;;;;;;;18.57;36.30;99402.03;4136685;28;20064;-50
2021/05/22 01:44:23;;;;;;;8.57;2.50;;;;;;;18.56;36.25;99417.00;4138189;28;20121;-51
2021/05/22 01:46:25;;;;;;;3.67;1.92;;;;;;;18.62;36.09;99401.91;4128481;28;20042;-52
2021/05/22 01:48:26;;;;;;;6.57;2.50;;;;;;;18.39;36.51;99397.44;4140793;28;20497;-48
2021/05/22 01:50:29;;;;;;;6.28;2.20;;;;;;;18.51;36.36;99394.97;4137860;28;20113;-51
2021/05/22 01:52:33;;;;;;;5.32;2.30;;;;;;;18.51;36.45;99400.50;4148169;28;20133;-51
2021/05/22 01:54:36;;;;;;;6.63;2.20;;;;;;;18.56;36.10;99385.72;4138929;28;20110;-50
2021/05/22 01:56:38;;;;;;;4.95;2.10;;;;;;;18.59;36.24;99398.94;4138859;28;20503;-48
2021/05/22 01:58:39;;;;;;;6.32;2.28;;;;;;;18.55;36.22;99409.00;4137926;28;20029;-52
2021/05/22 02:00:40;;;;;;;4.90;2.38;;;;;;;18.47;36.16;99413.34;4137002;28;20034;-48
2021/05/22 02:02:50;;;;;;;5.63;1.65;;;;;;;18.48;36.11;99401.94;4143128;28;20428;-52
2021/05/22 02:04:51;;;;;;;5.57;2.03;;;;;;;18.50;36.13;99401.63;4152083;28;20034;-51
2021/05/22 02:06:54;;;;;;;5.05;1.92;;;;;;;18.46;36.25;99397.81;4141254;28;20511;-51
2021/05/22 02:08:57;;;;;;;5.07;1.90;;;;;;;18.33;36.25;99389.25;4140529;28;20084;-52
2021/05/22 02:10:58;;;;;;;5.95;1.83;;;;;;;;;;4135379;28;20087;-48
2021/05/22 02:12:59;;;;;;;5.25;1.67;;;;;;;18.35;36.13;99395.31;4140963;28;20038;-50
2021/05/22 02:15:02;;;;;;;5.80;2.00;;;;;;;18.43;35.94;99396.53;4137363;28;20607;-51
2021/05/22 02:17:06;;;;;;;6.03;1.85;;;;;;;18.37;36.38;99410.78;4141359;28;20038;-49
2021/05/22 02:19:10;;;;;;;4.75;1.63;;;;;;;18.32;36.29;99400.63;4139169;28;20038;-48
2021/05/22 02:21:11;;;;;;;5.95;2.00;;;;;;;18.33;36.31;99394.78;4138382;28;20034;-50
2021/05/22 02:23:13;;;;;;;5.35;2.05;;;;;;;18.43;36.23;99398.44;4136503;28;20182;-51
2021/05/22 02:25:15;;;;;;;4.95;2.00;;;;;;;18.34;36.19;99395.63;4133585;28;20084;-48
2021/05/22 02:27:16;;;;;;;6.75;2.60;;;;;;;18.30;36.30;99403.72;4136350;28;20038;-45
2021/05/22 02:29:19;;;;;;;5.45;1.80;;;;;;;18.28;36.30;99392.09;4132960;28;20117;-48
2021/05/22 02:31:24;;;;;;;3.58;1.85;;;;;;;18.32;36.18;99387.63;4137226;28;20036;-49
2021/05/22 02:33:25;;;;;;;4.90;1.65;;;;;;;18.22;36.37;99398.06;4138506;28;20076;-49
2021/05/22 02:35:26;;;;;;;4.45;1.90;;;;;;;18.28;35.88;99392.09;4135878;28;20072;-50
2021/05/22 02:37:30;;;;;;;5.05;1.90;;;;;;;18.26;36.31;99388.00;4138115;28;20128;-48
2021/05/22 02:39:33;;;;;;;6.40;2.05;;;;;;;18.17;36.55;99391.50;4142385;28;20034;-50
2021/05/22 02:41:35;;;;;;;4.88;1.70;;;;;;;18.30;36.22;99389.03;4145883;28;20036;-49
2021/05/22 02:43:39;;;;;;;5.28;1.92;;;;;;;18.25;36.20;99392.72;4140239;28;20034;-46
2021/05/22 02:45:43;;;;;;;4.53;1.90;;;;;;;18.19;36.26;99382.88;4140076;28;20480;-47
2021/05/22 02:47:47;;;;;;;4.28;1.80;;;;;;;18.19;36.25;99391.19;4141587;28;20606;-53
2021/05/22 02:49:48;;;;;;;6.00;1.98;;;;;;;18.17;36.19;99391.50;4138100;28;20096;-48
2021/05/22 02:51:49;;;;;;;5.80;2.20;;;;;;;18.15;36.17;99381.84;4143868;28;20045;-50
2021/05/22 02:53:51;;;;;;;5.30;2.10;;;;;;;18.24;36.19;99387.50;4136825;28;20412;-49
2021/05/22 02:55:53;;;;;;;5.55;2.00;;;;;;;18.21;36.19;99377.84;4140796;28;20524;-48
2021/05/22 02:57:55;;;;;;;6.47;1.95;;;;;;;18.20;36.19;99380.91;4142238;28;20435;-49
2021/05/22 02:59:57;;;;;;;4.90;2.10;;;;;;;18.21;36.06;99379.81;4140291;28;20030;-50
2021/05/22 03:02:01;;;;;;;8.20;2.25;;;;;;;18.12;36.08;99380.53;4142754;28;20033;-47
2021/05/22 03:04:01;;;;;;;4.10;2.00;;;;;;;18.23;35.97;99385.84;4142217;28;20034;-49
2021/05/22 03:06:04;;;;;;;5.10;1.90;;;;;;;18.21;36.11;99380.63;4142431;28;20034;-49
2021/05/22 03:08:05;;;;;;;3.45;1.42;;;;;;;18.12;36.35;99375.00;4141870;28;20112;-49
2021/05/22 03:10:06;;;;;;;5.68;1.80;;;;;;;18.13;36.22;99371.09;4141534;28;20041;-50
2021/05/22 03:12:08;;;;;;;4.63;1.90;;;;;;;18.15;36.06;99377.16;4142154;28;20030;-48
2021/05/22 03:14:08;;;;;;;6.32;2.47;;;;;;;18.10;36.32;99373.66;4140550;28;20061;-48
2021/05/22 03:16:09;;;;;;;6.68;2.30;;;;;;;17.98;36.27;99363.94;4142347;28;20048;-47
2021/05/22 03:18:09;;;;;;;4.18;1.77;;;;;;;18.12;36.15;99380.53;4138321;28;20037;-49
2021/05/22 03:20:10;;;;;;;4.00;1.75;;;;;;;18.12;35.96;99369.47;4142720;28;20041;-48
2021/05/22 03:22:11;;;;;;;5.95;2.15;;;;;;;18.02;36.29;99375.22;4139112;28;20227;-48
2021/05/22 03:24:12;;;;;;;4.05;1.77;;;;;;;18.07;36.14;99366.78;4138961;28;20030;-49
2021/05/22 03:26:13;;;;;;;5.50;2.20;;;;;;;18.08;36.10;99376.75;4142948;28;20038;-50
2021/05/22 03:28:13;;;;;;;3.60;1.65;;;;;;;18.04;36.01;99374.91;4146269;28;20042;-51
2021/05/22 03:30:15;;;;;;;5.80;2.10;;;;;;;17.98;35.98;99385.25;4140136;28;20042;-48
2021/05/22 03:32:15;;;;;;;6.80;2.20;;;;;;;18.06;36.18;99383.72;4140239;28;20413;-54
2021/05/22 03:34:15;;;;;;;3.83;1.65;;;;;;;18.11;36.00;99375.31;4141251;28;20029;-52
2021/05/22 03:36:16;;;;;;;3.78;1.92;;;;;;;18.02;35.90;99377.16;4134934;28;20041;-48
2021/05/22 03:38:17;;;;;;;4.55;1.95;;;;;;;17.94;36.32;99374.00;4138883;28;20038;-47
2021/05/22 03:40:17;;;;;;;4.18;1.73;;;;;;;17.91;36.24;99366.31;4140502;28;20034;-47
2021/05/22 03:42:18;;;;;;;5.05;1.90;;;;;;;17.99;35.96;99362.00;4149268;28;20068;-47
2021/05/22 03:44:18;;;;;;;4.38;1.80;;;;;;;17.93;36.24;99366.00;4137712;28;20080;-48
2021/05/22 03:46:19;;;;;;;4.22;1.67;;;;;;;17.96;36.25;99390.28;4141969;28;20034;-49
2021/05/22 03:48:19;;;;;;;5.55;2.15;;;;;;;17.93;35.91;99385.38;4150010;28;20030;-47
2021/05/22 03:50:20;;;;;;;4.10;1.88;;;;;;;18.00;36.00;99383.81;4140502;28;20034;-46
2021/05/22 03:52:20;;;;;;;6.25;2.10;;;;;;;17.91;36.26;99366.31;4144263;28;20174;-51
2021/05/22 03:54:21;;;;;;;3.83;1.42;;;;;;;18.01;36.08;99381.88;4136723;28;20088;-47
2021/05/22 03:56:22;;;;;;;4.60;1.75;;;;;;;17.92;36.12;99373.50;4138652;28;20495;-51
2021/05/22 03:58:23;;;;;;;5.03;1.80;;;;;;;17.89;36.30;99381.56;4141775;28;20034;-48
2021/05/22 04:00:23;;;;;;;3.17;1.92;;;;;;;17.89;36.13;99382.41;4140580;28;20042;-48
2021/05/22 04:02:24;;;;;;;3.38;2.10;;;;;;;17.85;36.11;99378.59;4142858;28;20094;-47
2021/05/22 04:04:24;;;;;;;5.45;2.25;;;;;;;17.84;36.21;99388.03;4142991;28;20432;-52
2021/05/22 04:06:25;;;;;;;5.78;1.75;;;;;;;17.93;35.97;99391.72;4143292;28;20035;-49
2021/05/22 04:08:25;;;;;;;5.25;2.17;;;;;;;17.90;36.32;99389.56;4139451;28;20044;-47
2021/05/22 04:10:25;;;;;;;5.22;2.22;;;;;;;17.86;36.21;99376.66;4140362;28;20038;-51
2021/05/22 04:12:26;;;;;;;4.22;1.75;;;;;;;17.81;36.17;99378.41;4142218;28;20034;-48
2021/05/22 04:14:26;;;;;;;3.67;1.58;;;;;;;17.88;36.00;99391.84;4143478;28;20550;-50
2021/05/22 04:16:27;;;;;;;5.10;1.58;;;;;;;17.87;36.01;99389.38;4141690;28;20030;-51
2021/05/22 04:18:27;;;;;;;4.63;1.73;;;;;;;17.85;36.05;99383.34;4146105;28;20037;-46
2021/05/22 04:20:28;;;;;;;4.65;1.85;;;;;;;17.84;36.17;99381.69;4137906;28;20375;-47
2021/05/22 04:22:28;;;;;;;4.65;1.63;;;;;;;17.76;36.37;99395.09;4140832;28;20033;-50
2021/05/22 04:24:28;;;;;;;4.65;2.30;;;;;;;17.75;36.09;99392.63;4143812;28;20045;-49
2021/05/22 04:26:29;;;;;;;5.72;2.00;;;;;;;17.77;36.23;99396.75;4137485;28;20091;-51
2021/05/22 04:28:29;;;;;;;4.72;1.85;;;;;;;17.84;36.31;99401.06;4141969;28;20477;-52
2021/05/22 04:30:30;;;;;;;4.22;2.30;;;;;;;17.71;36.29;99409.03;4142157;28;20034;-52
2021/05/22 04:32:30;;;;;;;3.83;1.80;;;;;;;17.69;36.44;99397.47;4140971;28;20053;-53
2021/05/22 04:34:31;;;;;;;4.63;2.15;;;;;;;17.72;36.21;99407.94;4145038;28;20034;-53
2021/05/22 04:36:31;;;;;;;3.58;1.88;;;;;;;17.74;36.10;99407.63;4140117;28;20037;-51
2021/05/22 04:38:32;;;;;;;4.72;2.00;;;;;;;17.68;36.38;99406.09;4136384;28;20560;-52
2021/05/22 04:40:32;;;;;;;6.50;2.35;;;;;;;17.77;36.15;99410.59;4137821;28;20088;-48
2021/05/22 04:42:33;;;;;;;4.90;2.20;;;;;;;17.67;36.37;99421.84;4139369;28;20488;-48
2021/05/22 04:44:33;;;;;;;5.25;2.30;;;;;;;17.61;36.52;99420.28;4151847;28;20088;-51
2021/05/22 04:46:34;;;;;;;6.13;2.47;;;;;;;17.62;36.48;99413.66;4138818;28;20120;-53
2021/05/22 04:48:34;;;;;;;3.58;1.40;;;;;;;17.67;36.37;99421.84;4146140;28;20030;-50
2021/05/22 04:50:35;;;;;;;3.60;1.35;;;;;;;17.55;36.65;99419.59;4139923;28;20030;-52
2021/05/22 04:52:35;;;;;;;6.07;2.10;;;;;;;17.58;36.28;99435.59;4140311;28;20041;-52
2021/05/22 04:54:36;;;;;;;7.22;2.42;;;;;;;17.67;36.29;99424.59;4144182;28;20036;-48
2021/05/22 04:56:37;;;;;;;3.65;1.67;;;;;;;17.64;36.47;99433.53;4139722;28;20499;-52
2021/05/22 04:58:37;;;;;;;3.30;1.90;;;;;;;17.60;36.25;99449.09;4143818;28;20034;-46
2021/05/22 05:00:38;;;;;;;4.63;2.65;;;;;;;17.61;36.21;99439.66;4146982;28;20031;-48
2021/05/22 05:02:38;;;;;;;3.75;1.90;;;;;;;17.75;36.42;99439.69;4141306;28;20033;-51
2021/05/22 05:04:39;;;;;;;4.20;1.75;;;;;;;17.61;36.34;99447.97;4141848;28;20030;-49
2021/05/22 05:06:39;;;;;;;4.20;1.95;;;;;;;17.60;36.28;99446.34;4138790;28;20184;-53
2021/05/22 05:08:40;;;;;;;7.38;2.38;;;;;;;17.71;36.20;99446.97;4135472;28;20174;-46
2021/05/22 05:10:40;;;;;;;2.95;1.60;;;;;;;17.60;36.34;99440.81;4137209;28;20096;-48
2021/05/22 05:12:41;;;;;;;2.88;1.58;;;;;;;17.60;36.51;99447.16;4139666;28;20668;-52
2021/05/22 05:14:41;;;;;;;4.40;2.10;;;;;;;17.60;36.18;99452.69;4135162;28;20042;-48
2021/05/22 05:16:42;;;;;;;3.60;1.92;;;;;;;17.54;36.49;99456.69;4140688;28;20038;-48
2021/05/22 05:18:43;;;;;;;3.35;2.13;;;;;;;17.50;36.83;99466.69;4141089;28;20374;-48
2021/05/22 05:20:43;;;;;;;4.53;2.13;;;;;;;17.45;36.78;99464.81;4144872;28;20059;-50
2021/05/22 05:22:43;;;;;;;2.92;1.40;;;;;;;17.55;36.35;99466.63;4139623;28;20088;-54
2021/05/22 05:24:44;;;;;;;5.05;1.88;;;;;;;17.55;36.40;99463.00;4141458;28;20500;-52
2021/05/22 05:26:44;;;;;;;4.13;1.60;;;;;;;17.48;36.50;99465.34;4139538;28;20099;-53
2021/05/22 05:28:45;;;;;;;3.58;1.85;;;;;;;17.54;36.46;99478.00;4146097;28;20046;-47
2021/05/22 05:30:45;;;;;;;4.53;2.28;;;;;;;17.48;36.34;99468.13;4135512;28;20042;-46
2021/05/22 05:32:46;;;;;;;4.43;1.65;;;;;;;17.40;36.67;99475.16;4147865;28;20037;-51
2021/05/22 05:34:46;;;;;;;3.70;1.90;;;;;;;17.43;36.56;99461.53;4141558;28;20041;-46
2021/05/22 05:36:47;;;;;;;5.50;2.15;;;;;;;17.56;36.51;99481.28;4139393;28;20092;-46
2021/05/22 05:38:47;;;;;;;4.07;1.85;;;;;;;17.30;36.29;99465.06;4138887;28;20033;-48
2021/05/22 05:40:47;;;;;;;4.25;1.60;;;;;;;17.52;36.43;99488.53;4138786;28;20037;-46
2021/05/22 05:42:49;;;;;;;3.45;1.70;;;;;;;17.56;36.31;99484.03;4140071;28;20033;-49
2021/05/22 05:44:50;;;;;;;4.50;1.90;;;;;;;17.41;36.62;99490.59;4139101;28;20122;-49
2021/05/22 05:46:50;;;;;;;3.28;1.65;;;;;;;17.52;36.44;99491.28;4138448;28;20509;-48
2021/05/22 05:48:51;;;;;;;3.22;1.70;;;;;;;17.49;36.41;99497.41;4146988;28;20057;-48
2021/05/22 05:50:51;;;;;;;4.45;1.95;;;;;;;17.36;36.71;99499.81;4138496;28;20531;-48
2021/05/22 05:52:51;;;;;;;5.03;1.88;;;;;;;17.37;36.65;99495.94;4143342;28;20122;-51
2021/05/22 05:54:52;;;;;;;3.90;1.60;;;;;;;17.34;36.67;99504.84;4139889;28;20109;-49
2021/05/22 05:56:52;;;;;;;5.40;1.98;;;;;;;17.37;36.78;99517.25;4136979;28;20450;-52
2021/05/22 05:58:53;;;;;;;4.85;2.03;;;;;;;17.41;36.58;99508.03;4142613;28;20030;-49
2021/05/22 06:00:53;;;;;;;4.45;2.00;;;;;;;17.37;36.60;99509.75;4140896;28;20038;-49
2021/05/22 06:02:54;;;;;;;4.88;1.88;;;;;;;17.36;36.65;99510.88;4141646;28;20105;-49
2021/05/22 06:04:54;;;;;;;3.28;1.70;;;;;;;17.32;36.53;99515.38;4141105;28;20440;-54
2021/05/22 06:06:55;;;;;;;4.53;2.13;;;;;;;17.28;36.88;99520.69;4136699;28;20451;-52
2021/05/22 06:08:55;;;;;;;4.40;1.90;;;;;;;17.44;36.54;99526.81;4139788;28;20026;-50
2021/05/22 06:10:57;;;;;;;4.35;1.83;;;;;;;17.35;36.85;99519.47;4142834;28;20030;-49
2021/05/22 06:12:57;;;;;;;2.83;1.42;;;;;;;17.39;36.71;99521.34;4140835;28;20120;-51
2021/05/22 06:15:08;;;;;;;3.15;1.58;;;;;;;17.37;36.44;99520.00;4132228;28;20074;-51
2021/05/22 06:17:08;;;;;;;2.20;1.60;;;;;;;17.42;36.63;99529.03;4142610;28;20031;-47
2021/05/22 06:19:09;;;;;;;4.57;1.90;;;;;;;17.32;36.67;99531.97;4140131;28;20376;-46
2021/05/22 06:21:10;;;;;;;5.13;1.55;;;;;;;17.36;36.62;99530.25;4142605;28;20037;-46
2021/05/22 06:23:10;;;;;;;4.00;1.75;;;;;;;17.35;36.71;99538.84;4140662;28;20043;-46
2021/05/22 06:25:12;;;;;;;3.20;1.70;;;;;;;17.42;36.56;99539.28;4145774;28;20103;-46
2021/05/22 06:27:12;;;;;;;3.78;1.88;;;;;;;17.33;36.89;99555.72;4151598;28;20033;-48
2021/05/22 06:29:13;;;;;;;3.22;1.70;;;;;;;17.34;36.71;99556.56;4141241;28;20053;-51
2021/05/22 06:31:14;;;;;;;2.95;1.25;;;;;;;17.31;36.49;99566.28;4139299;28;20034;-50
2021/05/22 06:33:14;;;;;;;3.17;1.55;;;;;;;17.39;36.88;99560.06;4143269;28;20037;-52
2021/05/22 06:35:15;;;;;;;4.53;1.92;;;;;;;17.33;36.74;99560.44;4142072;28;20045;-50
2021/05/22 06:37:15;;;;;;;3.40;1.70;;;;;;;17.28;36.77;99569.66;4144793;28;20034;-50
2021/05/22 06:39:16;;;;;;;7.25;1.58;;;;;;;17.27;36.73;99549.47;4139983;28;20096;-50
2021/05/22 06:41:16;;;;;;;4.22;1.88;;;;;;;17.32;36.71;99564.31;4140500;28;20041;-47
2021/05/22 06:43:17;;;;;;;3.05;1.70;;;;;;;17.31;36.80;99576.53;4143297;28;20029;-52
2021/05/22 06:45:20;;;;;;;5.28;1.98;;;;;;;17.25;36.78;99571.06;4141247;28;20034;-48
2021/05/22 06:47:21;;;;;;;3.70;2.00;;;;;;;17.28;36.80;99577.94;4144968;28;20060;-48
2021/05/22 06:49:22;;;;;;;5.30;1.83;;;;;;;17.29;36.69;99569.34;4134925;28;20034;-50
2021/05/22 06:51:22;;;;;;;3.33;1.70;;;;;;;17.31;36.94;99588.41;4143302;28;20030;-50
2021/05/22 06:53:23;;;;;;;3.95;1.60;;;;;;;17.29;36.80;99591.47;4134232;28;20067;-51
2021/05/22 06:55:23;;;;;;;3.13;1.70;;;;;;;17.28;36.89;99595.34;4141529;28;20042;-49
2021/05/22 06:57:24;;;;;;;3.10;1.60;;;;;;;17.30;36.82;99592.28;4139997;28;20562;-48
2021/05/22 06:59:24;;;;;;;4.55;1.77;;;;;;;17.28;36.82;99581.53;4144028;28;20237;-49
2021/05/22 07:01:26;;;;;;;3.92;1.98;;;;;;;17.31;36.85;99593.94;4141113;28;20037;-48
2021/05/22 07:03:26;;;;;;;2.75;1.50;;;;;;;17.27;36.92;99603.94;4138134;28;20045;-50
2021/05/22 07:05:27;;;;;;;3.88;1.58;;;;;;;17.28;36.89;99609.19;4137820;28;20496;-51
2021/05/22 07:07:27;;;;;;;2.88;1.63;;;;;;;17.27;36.96;99613.09;4140395;28;20034;-49
2021/05/22 07:09:27;;;;;;;4.03;1.60;;;;;;;17.28;36.83;99608.38;4139908;28;20042;-47
2021/05/22 07:11:28;;;;;;;4.53;1.75;;;;;;;17.24;36.99;99607.31;4138628;28;20064;-50
2021/05/22 07:13:28;;;;;;;2.35;1.38;;;;;;;17.29;36.77;99618.31;4142437;28;20042;-48
2021/05/22 07:15:29;;;;;;;2.00;1.17;;;;;;;17.14;36.70;99591.69;4139029;28;20034;-48
2021/05/22 07:17:30;;;;;;;2.97;1.23;;;;;;;17.23;36.95;99606.50;4139112;28;20057;-49
2021/05/22 07:19:30;;;;;;;5.45;1.60;;;;;;;17.27;36.83;99610.31;4133424;28;20030;-53
2021/05/22 07:21:32;;;;;;;3.58;1.30;;;;;;;17.36;36.67;99627.03;4141774;28;20030;-50
2021/05/22 07:23:33;;;;;;;2.80;1.40;;;;;;;17.41;36.82;99624.22;4139440;28;20030;-52
2021/05/22 07:25:34;;;;;;;5.75;2.15;;;;;;;17.39;36.69;99634.75;4142378;28;20052;-49
2021/05/22 07:27:36;;;;;;;3.20;1.90;;;;;;;17.39;36.88;99636.69;4136955;28;20046;-47
2021/05/22 07:29:36;;;;;;;4.35;1.75;;;;;;;17.31;37.02;99645.69;4138812;28;20500;-51
2021/05/22 07:31:40;;;;;;;2.40;1.55;;;;;;;17.30;37.00;99647.59;4139731;28;20567;-49
2021/05/22 07:33:42;;;;;;;2.38;1.20;;;;;;;17.35;36.86;99652.22;4141367;28;20033;-53
2021/05/22 07:35:42;;;;;;;2.55;1.42;;;;;;;17.33;36.91;99644.22;4136473;28;20050;-51
2021/05/22 07:37:43;;;;;;;4.25;1.20;;;;;;;17.38;36.89;99649.72;4133567;28;20038;-51
2021/05/22 07:39:43;;;;;;;3.47;1.60;;;;;;;17.38;36.79;99652.47;4139924;28;20420;-50
2021/05/22 07:41:45;;;;;;;2.97;1.67;;;;;;;17.38;36.97;99662.69;4135411;28;20509;-53
2021/05/22 07:43:46;;;;;;;4.45;1.38;;;;;;;17.35;36.79;99663.28;4138788;28;20033;-50
2021/05/22 07:45:47;;;;;;;3.78;1.35;;;;;;;17.37;36.79;99663.84;4142703;28;20033;-50
2021/05/22 07:47:47;;;;;;;2.33;1.40;;;;;;;17.35;36.91;99669.66;4131195;28;20061;-50
2021/05/22 07:49:48;;;;;;;3.97;1.40;;;;;;;17.34;36.95;99679.06;4136539;28;20038;-53
2021/05/22 07:51:49;;;;;;;2.83;1.13;;;;;;;17.39;36.82;99676.22;4143913;28;20041;-51
2021/05/22 07:53:49;;;;;;;2.33;1.38;;;;;;;17.35;37.05;99689.03;4138116;28;20054;-49
2021/05/22 07:55:50;;;;;;;2.85;1.50;;;;;;;17.40;36.96;99682.59;4139043;28;20035;-50
2021/05/22 07:57:50;;;;;;;3.25;1.67;;;;;;;17.39;37.14;99692.03;4138887;28;20428;-49
2021/05/22 07:59:51;;;;;;;2.25;1.30;;;;;;;17.38;36.98;99691.22;4134572;28;20030;-48
2021/05/22 08:01:51;;;;;;;4.40;1.00;;;;;;;17.40;36.81;99708.31;4138580;28;21109;-48
2021/05/22 08:03:52;;;;;;;4.47;1.50;;;;;;;17.39;37.02;99708.63;4137138;28;20029;-52
2021/05/22 08:05:52;;;;;;;2.83;1.20;;;;;;;17.42;37.11;99702.50;4137455;28;20038;-47
2021/05/22 08:07:54;;;;;;;4.78;1.70;;;;;;;17.40;36.97;99705.56;4145271;28;20030;-51
2021/05/22 08:09:54;;;;;;;3.97;1.60;;;;;;;17.40;37.16;99707.50;4136150;28;20129;-53
2021/05/22 08:11:55;;;;;;;2.90;1.30;;;;;;;17.42;36.89;99705.25;4139643;28;20033;-51
2021/05/22 08:13:55;;;;;;;2.63;1.33;;;;;;;17.39;36.90;99714.97;4130640;28;20034;-48
2021/05/22 08:15:56;;;;;;;5.03;1.35;;;;;;;17.40;37.21;99719.38;4137207;28;20025;-50
2021/05/22 08:17:56;;;;;;;5.20;1.35;;;;;;;17.37;36.89;99728.28;4135585;28;20041;-47
2021/05/22 08:19:57;;;;;;;3.70;1.63;;;;;;;17.39;37.17;99719.69;4137496;28;20033;-46
2021/05/22 08:21:58;;;;;;;3.28;1.65;;;;;;;17.42;37.30;99730.16;4139454;28;20380;-50
2021/05/22 08:23:59;;;;;;;3.13;1.35;;;;;;;17.42;36.98;99727.38;4134918;28;20026;-49
2021/05/22 08:25:59;;;;;;;1.67;1.27;;;;;;;17.44;37.23;99731.50;4133092;28;20033;-51
2021/05/22 08:27:59;;;;;;;2.63;1.10;;;;;;;17.44;36.97;99738.97;4139670;28;20033;-47
2021/05/22 08:30:00;;;;;;;2.67;1.42;;;;;;;17.45;37.06;99741.44;4130242;28;20046;-50
2021/05/22 08:32:00;;;;;;;4.28;1.73;;;;;;;17.44;36.90;99739.81;4139788;28;20612;-52
2021/05/22 08:34:02;;;;;;;2.58;1.50;;;;;;;17.45;36.99;99746.97;4139890;28;20038;-54
2021/05/22 08:36:02;;;;;;;3.17;1.63;;;;;;;17.46;36.95;99743.09;4141832;28;20065;-47
2021/05/22 08:38:03;;;;;;;2.38;1.15;;;;;;;17.49;36.85;99747.25;4138347;28;20053;-48
2021/05/22 08:40:05;;;;;;;3.15;1.27;;;;;;;17.46;36.95;99754.16;4137944;28;20629;-51
2021/05/22 08:42:06;;;;;;;2.85;1.13;;;;;;;17.46;37.09;99756.13;4142063;28;23204;-50
2021/05/22 08:44:07;;;;;;;2.40;1.35;;;;;;;17.47;36.97;99760.50;4138673;28;20062;-48
2021/05/22 08:46:11;;;;;;;3.53;1.75;;;;;;;17.43;37.07;99767.78;4138802;28;20125;-51
2021/05/22 08:48:12;;;;;;;3.38;1.60;;;;;;;17.48;37.06;99769.66;4137321;28;20868;-48
2021/05/22 08:50:13;;;;;;;4.97;1.55;;;;;;;17.50;37.14;99770.19;4142507;28;20032;-46
2021/05/22 08:52:19;;;;;;;2.95;1.35;;;;;;;17.46;37.15;99770.75;4142346;28;20415;-47
2021/05/22 08:54:19;;;;;;;1.85;1.42;;;;;;;17.48;37.20;99776.00;4139376;28;20034;-48
2021/05/22 08:56:20;;;;;;;2.25;1.30;;;;;;;17.52;37.02;99790.09;4138793;28;20092;-47
2021/05/22 08:58:20;;;;;;;3.47;1.52;;;;;;;17.54;36.96;99785.91;4142024;28;20088;-46
2021/05/22 09:00:24;;;;;;;1.75;1.20;;;;;;;17.55;36.98;99795.03;4140019;28;20543;-50
2021/05/22 09:02:27;;;;;;;1.80;1.10;;;;;;;17.50;37.03;99789.56;4143319;28;20376;-49
2021/05/22 09:04:27;;;;;;;2.30;1.27;;;;;;;17.53;37.11;99791.75;4139690;28;20033;-46
2021/05/22 09:06:27;;;;;;;2.67;1.25;;;;;;;17.49;37.06;99797.06;4142258;28;20038;-47
2021/05/22 09:08:32;;;;;;;2.50;1.60;;;;;;;17.46;37.37;99809.50;4139507;28;20088;-50
2021/05/22 09:10:43;;;;;;;1.90;1.20;;;;;;;17.50;37.12;99806.97;4140163;28;20399;-47
2021/05/22 09:12:47;;;;;;;3.00;1.20;;;;;;;17.48;37.08;99794.53;4149259;28;20404;-47
2021/05/22 09:14:48;;;;;;;3.05;1.42;;;;;;;17.50;36.99;99808.94;4134917;28;20025;-49
2021/05/22 09:16:50;;;;;;;4.72;1.73;;;;;;;17.51;36.85;99805.06;4137966;28;20385;-47
2021/05/22 09:18:51;;;;;;;2.60;1.20;;;;;;;17.54;36.91;99810.00;4134330;28;20112;-47
2021/05/22 09:20:59;;;;;;;2.20;1.27;;;;;;;17.50;36.92;99808.94;4134109;28;20493;-46
2021/05/22 09:23:15;;;;;;;3.53;1.35;;;;;;;17.53;36.93;99813.88;4138374;28;20061;-50
2021/05/22 09:25:15;;;;;;;2.55;1.20;;;;;;;17.51;36.93;99818.88;4136706;28;20034;-51
2021/05/22 09:27:16;;;;;;;1.45;1.00;;;;;;;17.53;36.89;99822.19;4138430;28;20055;-47
2021/05/22 09:29:24;;;;;;;2.95;1.52;;;;;;;17.57;36.96;99823.25;4129466;28;20026;-47
2021/05/22 09:31:27;;;;;;;1.27;0.88;;;;;;;17.51;37.09;99828.00;4133938;28;20038;-49